Terminal Aerodrome Forecast
Issued by NWS

Home | Current Version | Previous Version | Graphics & Text | Print | Product List | Glossary On
Versions: 1 2 3 4 5 6 7 8 9 10 11 12 13 14 15 16 17 18 19 20 21 22
000
FTUS43 KBIS 201200 AAA
TAFMOT
TAF AMD
KMOT 201215Z 2012/2112 26014KT P6SM -SHRA SCT050 BKN070
      TEMPO 2014/2016 5SM -SHRA BKN020
     FM201700 30022G30KT P6SM SCT070
     FM210100 30011KT P6SM SKC=

USA.gov is the U.S. government's official web portal to all federal, state and local government web resources and services.